createdAt,value
2022-08-26T00:00:43.104Z,19.27
2022-08-26T00:01:44.243Z,19.29
2022-08-26T00:02:43.085Z,19.30
2022-08-26T00:03:43.109Z,19.31
2022-08-26T00:04:43.085Z,19.33
2022-08-26T00:05:43.042Z,19.30
2022-08-26T00:06:46.164Z,19.29
2022-08-26T00:07:43.408Z,19.29
2022-08-26T00:08:43.007Z,19.27
2022-08-26T00:09:43.035Z,19.26
2022-08-26T00:10:42.991Z,19.26
2022-08-26T00:11:42.974Z,19.26
2022-08-26T00:12:42.967Z,19.26
2022-08-26T00:13:47.815Z,19.26
2022-08-26T00:14:43.985Z,19.24
2022-08-26T00:15:42.959Z,19.16
2022-08-26T00:16:47.265Z,19.12
2022-08-26T00:17:43.906Z,19.14
2022-08-26T00:18:42.894Z,19.08
2022-08-26T00:19:42.928Z,18.98
2022-08-26T00:20:42.883Z,18.98
2022-08-26T00:21:42.866Z,18.99
2022-08-26T00:22:42.847Z,18.96
2022-08-26T00:23:42.861Z,18.93
2022-08-26T00:24:47.915Z,18.92
2022-08-26T00:25:43.828Z,18.95
2022-08-26T00:26:42.966Z,19.00
2022-08-26T00:27:42.792Z,19.07
2022-08-26T00:28:42.782Z,19.09
2022-08-26T00:29:42.784Z,19.12
2022-08-26T00:30:42.801Z,19.12
2022-08-26T00:31:42.809Z,19.09
2022-08-26T00:32:44.019Z,19.08
2022-08-26T00:33:42.735Z,19.07
2022-08-26T00:34:42.718Z,19.00
2022-08-26T00:35:43.815Z,18.95
2022-08-26T00:36:42.695Z,18.93
2022-08-26T00:37:42.688Z,18.93
2022-08-26T00:38:42.694Z,18.90
2022-08-26T00:39:42.658Z,18.89
2022-08-26T00:40:42.688Z,18.88
2022-08-26T00:41:42.654Z,18.88
2022-08-26T00:42:46.044Z,18.89
2022-08-26T00:43:46.311Z,18.92
2022-08-26T00:44:43.595Z,18.95
2022-08-26T00:45:42.749Z,18.95
2022-08-26T00:46:46.680Z,18.90
2022-08-26T00:47:42.564Z,18.83
2022-08-26T00:48:42.551Z,18.84
2022-08-26T00:49:42.556Z,18.89
2022-08-26T00:50:42.569Z,18.93
2022-08-26T00:51:42.530Z,18.95
2022-08-26T00:52:42.517Z,18.98
2022-08-26T00:53:42.518Z,19.00
2022-08-26T00:54:42.505Z,19.04
2022-08-26T00:55:42.524Z,19.04
2022-08-26T00:56:42.457Z,19.00
2022-08-26T00:57:42.465Z,18.99
2022-08-26T00:58:42.436Z,18.99
2022-08-26T00:59:42.446Z,18.99
2022-08-26T01:00:42.515Z,18.98
2022-08-26T01:01:42.425Z,18.99
2022-08-26T01:02:46.917Z,18.96
2022-08-26T01:03:43.388Z,18.96
2022-08-26T01:04:42.364Z,18.96
2022-08-26T01:05:42.416Z,18.96
2022-08-26T01:06:42.361Z,18.98
2022-08-26T01:07:42.359Z,18.98
2022-08-26T01:08:42.332Z,18.96
2022-08-26T01:09:42.318Z,18.98
2022-08-26T01:10:42.343Z,18.95
2022-08-26T01:11:42.296Z,18.92
2022-08-26T01:12:42.280Z,18.89
2022-08-26T01:13:42.279Z,18.83
2022-08-26T01:14:42.259Z,18.78
2022-08-26T01:15:42.289Z,18.78
2022-08-26T01:16:42.452Z,18.77
2022-08-26T01:17:42.241Z,18.74
2022-08-26T01:18:42.202Z,18.71
2022-08-26T01:19:42.192Z,18.70
2022-08-26T01:20:42.218Z,18.66
2022-08-26T01:21:42.188Z,18.66
2022-08-26T01:22:42.167Z,18.66
2022-08-26T01:23:42.169Z,18.65
2022-08-26T01:24:42.147Z,18.63
2022-08-26T01:25:43.089Z,18.62
2022-08-26T01:26:42.118Z,18.60
2022-08-26T01:27:42.127Z,18.58
2022-08-26T01:28:42.118Z,18.58
2022-08-26T01:29:42.096Z,18.60
2022-08-26T01:30:42.117Z,18.58
2022-08-26T01:31:42.112Z,18.52
2022-08-26T01:32:42.075Z,18.52
2022-08-26T01:33:42.545Z,18.44
2022-08-26T01:34:42.041Z,18.43
2022-08-26T01:35:42.065Z,18.45
2022-08-26T01:36:41.996Z,18.52
2022-08-26T01:37:42.003Z,18.49
2022-08-26T01:38:41.989Z,18.49
2022-08-26T01:39:42.022Z,18.50
2022-08-26T01:40:41.998Z,18.50
2022-08-26T01:41:44.018Z,18.49
2022-08-26T01:42:41.938Z,18.45
2022-08-26T01:43:41.923Z,18.41
2022-08-26T01:44:41.918Z,18.43
2022-08-26T01:45:42.055Z,18.47
2022-08-26T01:46:41.896Z,18.50
2022-08-26T01:47:41.890Z,18.53
2022-08-26T01:48:41.884Z,18.56
2022-08-26T01:49:41.876Z,18.60
2022-08-26T01:50:41.918Z,18.65
2022-08-26T01:51:41.839Z,18.70
2022-08-26T01:52:41.807Z,18.70
2022-08-26T01:53:41.854Z,18.65
2022-08-26T01:54:41.789Z,18.60
2022-08-26T01:55:41.836Z,18.59
2022-08-26T01:56:41.777Z,18.56
2022-08-26T01:57:41.775Z,18.59
2022-08-26T01:58:41.764Z,18.60
2022-08-26T01:59:41.751Z,18.62
2022-08-26T02:00:41.795Z,18.63
2022-08-26T02:01:41.720Z,18.65
2022-08-26T02:02:41.715Z,18.66
2022-08-26T02:03:42.228Z,18.66
2022-08-26T02:04:41.763Z,18.62
2022-08-26T02:05:41.711Z,18.60
2022-08-26T02:06:41.657Z,18.58
2022-08-26T02:07:41.655Z,18.55
2022-08-26T02:08:41.645Z,18.55
2022-08-26T02:09:41.730Z,18.52
2022-08-26T02:10:41.652Z,18.49
2022-08-26T02:11:41.612Z,18.49
2022-08-26T02:12:41.588Z,18.44
2022-08-26T02:13:41.577Z,18.43
2022-08-26T02:14:43.740Z,18.41
2022-08-26T02:15:41.600Z,18.40
2022-08-26T02:16:42.283Z,18.43
2022-08-26T02:17:41.535Z,18.44
2022-08-26T02:18:41.540Z,18.45
2022-08-26T02:19:41.523Z,18.47
2022-08-26T02:20:41.554Z,18.43
2022-08-26T02:21:41.494Z,18.40
2022-08-26T02:22:41.480Z,18.40
2022-08-26T02:23:41.460Z,18.35
2022-08-26T02:24:41.435Z,18.37
2022-08-26T02:25:41.467Z,18.37
2022-08-26T02:26:41.444Z,18.35
2022-08-26T02:27:41.430Z,18.34
2022-08-26T02:28:41.403Z,18.33
2022-08-26T02:29:41.395Z,18.31
2022-08-26T02:30:41.436Z,18.29
2022-08-26T02:31:41.426Z,18.26
2022-08-26T02:32:41.453Z,18.28
2022-08-26T02:33:43.018Z,18.26
2022-08-26T02:34:41.340Z,18.25
2022-08-26T02:35:41.359Z,18.22
2022-08-26T02:36:41.332Z,18.19
2022-08-26T02:37:41.823Z,18.19
2022-08-26T02:38:41.293Z,18.20
2022-08-26T02:39:41.269Z,18.20
2022-08-26T02:40:41.326Z,18.23
2022-08-26T02:41:45.245Z,18.19
2022-08-26T02:42:41.249Z,18.19
2022-08-26T02:43:41.243Z,18.18
2022-08-26T02:44:41.230Z,18.15
2022-08-26T02:45:41.248Z,18.15
2022-08-26T02:46:41.246Z,18.13
2022-08-26T02:47:42.166Z,18.11
2022-08-26T02:48:41.179Z,18.11
2022-08-26T02:49:41.160Z,18.07
2022-08-26T02:50:41.199Z,18.05
2022-08-26T02:51:41.143Z,17.98
2022-08-26T02:52:41.124Z,17.94
2022-08-26T02:53:41.110Z,17.90
2022-08-26T02:54:41.113Z,17.94
2022-08-26T02:55:41.132Z,17.97
2022-08-26T02:56:41.080Z,18.00
2022-08-26T02:57:41.056Z,18.00
2022-08-26T02:58:41.048Z,17.98
2022-08-26T02:59:41.042Z,17.97
2022-08-26T03:00:52.822Z,18.00
2022-08-26T03:01:42.034Z,18.07
2022-08-26T03:02:41.010Z,18.08
2022-08-26T03:03:40.990Z,18.11
2022-08-26T03:04:40.985Z,18.11
2022-08-26T03:05:41.998Z,18.11
2022-08-26T03:06:41.512Z,18.10
2022-08-26T03:07:40.953Z,18.08
2022-08-26T03:08:40.940Z,18.05
2022-08-26T03:09:40.935Z,18.04
2022-08-26T03:10:40.961Z,17.97
2022-08-26T03:11:40.903Z,17.92
2022-08-26T03:12:40.898Z,17.94
2022-08-26T03:13:40.897Z,17.97
2022-08-26T03:14:40.875Z,17.95
2022-08-26T03:15:40.894Z,17.90
2022-08-26T03:16:40.847Z,17.90
2022-08-26T03:17:40.826Z,17.92
2022-08-26T03:18:40.805Z,17.90
2022-08-26T03:19:40.805Z,17.90
2022-08-26T03:20:40.825Z,17.92
2022-08-26T03:21:40.785Z,17.97
2022-08-26T03:22:40.773Z,18.03
2022-08-26T03:23:40.756Z,18.07
2022-08-26T03:24:40.738Z,18.10
2022-08-26T03:25:40.749Z,18.15
2022-08-26T03:26:40.728Z,18.18
2022-08-26T03:27:41.715Z,18.19
2022-08-26T03:28:40.697Z,18.19
2022-08-26T03:29:40.680Z,18.22
2022-08-26T03:30:45.001Z,18.23
2022-08-26T03:31:40.712Z,18.23
2022-08-26T03:32:41.491Z,18.25
2022-08-26T03:33:40.643Z,18.23
2022-08-26T03:34:40.630Z,18.20
2022-08-26T03:35:40.665Z,18.20
2022-08-26T03:36:41.616Z,18.20
2022-08-26T03:37:40.584Z,18.18
2022-08-26T03:38:40.591Z,18.18
2022-08-26T03:39:40.556Z,18.15
2022-08-26T03:40:40.600Z,18.13
2022-08-26T03:41:40.543Z,18.15
2022-08-26T03:42:40.530Z,18.16
2022-08-26T03:43:40.584Z,18.19
2022-08-26T03:44:42.223Z,18.19
2022-08-26T03:45:40.522Z,18.20
2022-08-26T03:46:40.517Z,18.16
2022-08-26T03:47:40.475Z,18.18
2022-08-26T03:48:40.466Z,18.18
2022-08-26T03:49:40.449Z,18.18
2022-08-26T03:50:40.475Z,18.18
2022-08-26T03:51:40.415Z,18.20
2022-08-26T03:52:43.681Z,18.25
2022-08-26T03:53:40.393Z,18.26
2022-08-26T03:54:40.413Z,18.29
2022-08-26T03:55:40.414Z,18.31
2022-08-26T03:56:40.356Z,18.34
2022-08-26T03:57:40.341Z,18.37
2022-08-26T03:58:42.833Z,18.38
2022-08-26T03:59:41.339Z,18.41
2022-08-26T04:00:40.384Z,18.40
2022-08-26T04:01:40.337Z,18.40
2022-08-26T04:02:40.309Z,18.40
2022-08-26T04:03:40.263Z,18.37
2022-08-26T04:04:40.271Z,18.38
2022-08-26T04:05:40.293Z,18.38
2022-08-26T04:06:40.257Z,18.40
2022-08-26T04:07:40.248Z,18.41
2022-08-26T04:08:40.219Z,18.44
2022-08-26T04:09:40.204Z,18.47
2022-08-26T04:10:40.242Z,18.49
2022-08-26T04:11:40.182Z,18.52
2022-08-26T04:12:40.176Z,18.52
2022-08-26T04:13:40.151Z,18.55
2022-08-26T04:14:40.156Z,18.55
2022-08-26T04:15:40.176Z,18.58
2022-08-26T04:16:40.133Z,18.58
2022-08-26T04:17:40.116Z,18.58
2022-08-26T04:18:40.608Z,18.58
2022-08-26T04:19:41.093Z,18.59
2022-08-26T04:20:40.114Z,18.62
2022-08-26T04:21:40.060Z,18.59
2022-08-26T04:22:40.067Z,18.62
2022-08-26T04:23:46.965Z,18.63
2022-08-26T04:24:41.029Z,18.68
2022-08-26T04:25:40.508Z,18.71
2022-08-26T04:26:42.616Z,18.74
2022-08-26T04:27:40.315Z,18.75
2022-08-26T04:28:39.992Z,18.78
2022-08-26T04:29:39.968Z,18.81
2022-08-26T04:30:40.013Z,18.86
2022-08-26T04:31:39.989Z,18.89
2022-08-26T04:32:39.962Z,18.92
2022-08-26T04:33:41.647Z,18.95
2022-08-26T04:34:39.917Z,18.96
2022-08-26T04:35:39.927Z,19.00
2022-08-26T04:36:39.916Z,19.02
2022-08-26T04:37:39.873Z,19.07
2022-08-26T04:38:39.864Z,19.09
2022-08-26T04:39:39.854Z,19.14
2022-08-26T04:40:39.885Z,19.16
2022-08-26T04:41:40.845Z,19.19
2022-08-26T04:42:39.831Z,19.22
2022-08-26T04:43:39.820Z,19.26
2022-08-26T04:44:39.806Z,19.30
2022-08-26T04:45:39.828Z,19.34
2022-08-26T04:46:43.954Z,19.37
2022-08-26T04:47:39.794Z,19.44
2022-08-26T04:48:39.762Z,19.48
2022-08-26T04:49:39.757Z,19.52
2022-08-26T04:50:39.792Z,19.56
2022-08-26T04:51:39.715Z,19.62
2022-08-26T04:52:39.715Z,19.64
2022-08-26T04:53:39.706Z,19.69
2022-08-26T04:54:42.035Z,19.74
2022-08-26T04:55:42.830Z,19.81
2022-08-26T04:56:40.675Z,19.86
2022-08-26T04:57:39.651Z,19.91
2022-08-26T04:58:39.677Z,19.96
2022-08-26T04:59:39.662Z,20.07
2022-08-26T05:00:39.683Z,20.14
2022-08-26T05:01:39.852Z,20.22
2022-08-26T05:02:39.602Z,20.34
2022-08-26T05:03:39.630Z,20.43
2022-08-26T05:04:39.588Z,20.58
2022-08-26T05:05:39.583Z,20.67
2022-08-26T05:06:39.544Z,20.75
2022-08-26T05:07:39.527Z,20.85
2022-08-26T05:08:39.543Z,20.90
2022-08-26T05:09:39.503Z,20.96
2022-08-26T05:10:39.542Z,20.92
2022-08-26T05:11:39.507Z,20.77
2022-08-26T05:12:39.482Z,20.63
2022-08-26T05:13:39.486Z,20.72
2022-08-26T05:14:39.461Z,20.75
2022-08-26T05:15:39.521Z,20.81
2022-08-26T05:16:40.475Z,20.88
2022-08-26T05:17:39.431Z,20.84
2022-08-26T05:18:39.424Z,20.90
2022-08-26T05:19:40.432Z,21.02
2022-08-26T05:20:39.429Z,21.20
2022-08-26T05:21:39.385Z,21.24
2022-08-26T05:22:39.365Z,21.35
2022-08-26T05:23:39.363Z,21.50
2022-08-26T05:24:39.353Z,21.58
2022-08-26T05:25:39.383Z,21.62
2022-08-26T05:26:39.333Z,21.73
2022-08-26T05:27:39.316Z,21.75
2022-08-26T05:28:39.309Z,21.83
2022-08-26T05:29:39.283Z,21.98
2022-08-26T05:30:39.310Z,22.06
2022-08-26T05:31:39.281Z,22.10
2022-08-26T05:32:39.274Z,22.15
2022-08-26T05:33:41.401Z,22.17
2022-08-26T05:34:39.223Z,22.25
2022-08-26T05:35:39.301Z,22.32
2022-08-26T05:36:39.233Z,22.30
2022-08-26T05:37:39.197Z,22.36
2022-08-26T05:38:39.185Z,22.45
2022-08-26T05:39:39.163Z,22.63
2022-08-26T05:40:39.185Z,22.78
2022-08-26T05:41:39.198Z,22.85
2022-08-26T05:42:39.153Z,22.94
2022-08-26T05:43:39.131Z,23.03
2022-08-26T05:44:53.623Z,23.13
2022-08-26T05:45:44.873Z,23.15
2022-08-26T05:46:40.268Z,23.18
2022-08-26T05:47:39.086Z,23.28
2022-08-26T05:48:39.075Z,23.41
2022-08-26T05:49:51.310Z,23.46
2022-08-26T05:50:40.068Z,23.54
2022-08-26T05:51:39.064Z,23.54
2022-08-26T05:52:39.037Z,23.51
2022-08-26T05:53:39.003Z,23.44
2022-08-26T05:54:39.024Z,23.50
2022-08-26T05:55:39.005Z,23.62
2022-08-26T05:56:39.044Z,23.78
2022-08-26T05:57:42.248Z,23.91
2022-08-26T05:58:38.952Z,24.03
2022-08-26T05:59:38.959Z,24.05
2022-08-26T06:00:38.944Z,24.01
2022-08-26T06:01:38.988Z,23.95
2022-08-26T06:02:38.968Z,24.01
2022-08-26T06:03:38.891Z,24.02
2022-08-26T06:04:38.905Z,24.16
2022-08-26T06:05:39.269Z,24.30
2022-08-26T06:06:38.914Z,24.40
2022-08-26T06:07:38.865Z,24.48
2022-08-26T06:08:38.866Z,24.53
2022-08-26T06:09:38.813Z,24.61
2022-08-26T06:10:38.822Z,24.65
2022-08-26T06:11:38.848Z,24.70
2022-08-26T06:12:38.830Z,24.69
2022-08-26T06:13:38.801Z,24.81
2022-08-26T06:14:38.782Z,24.92
2022-08-26T06:15:38.823Z,25.11
2022-08-26T06:16:38.798Z,25.29
2022-08-26T06:17:38.784Z,25.25
2022-08-26T06:18:38.747Z,25.07
2022-08-26T06:19:38.722Z,25.04
2022-08-26T06:20:38.740Z,25.06
2022-08-26T06:21:38.754Z,25.25
2022-08-26T06:22:38.713Z,25.35
2022-08-26T06:23:38.695Z,25.54
2022-08-26T06:24:38.695Z,25.87
2022-08-26T06:25:38.662Z,26.16
2022-08-26T06:26:38.702Z,26.37
2022-08-26T06:27:38.696Z,26.38
2022-08-26T06:28:38.635Z,26.45
2022-08-26T06:29:38.637Z,26.55
2022-08-26T06:30:38.606Z,26.37
2022-08-26T06:31:40.002Z,26.48
2022-08-26T06:32:38.586Z,26.71
2022-08-26T06:33:38.581Z,27.07
2022-08-26T06:34:38.573Z,27.32
2022-08-26T06:35:38.549Z,27.40
2022-08-26T06:36:38.610Z,27.36
2022-08-26T06:37:38.519Z,27.45
2022-08-26T06:38:38.550Z,27.40
2022-08-26T06:39:41.096Z,27.40
2022-08-26T06:40:38.479Z,27.54
2022-08-26T06:41:42.778Z,27.55
2022-08-26T06:42:39.458Z,27.47
2022-08-26T06:43:38.470Z,27.51
2022-08-26T06:44:38.459Z,27.45
2022-08-26T06:45:38.443Z,27.14
2022-08-26T06:46:38.510Z,27.15
2022-08-26T06:47:38.432Z,26.96
2022-08-26T06:48:38.429Z,26.75
2022-08-26T06:49:38.412Z,26.78
2022-08-26T06:50:38.393Z,26.83
2022-08-26T06:51:38.404Z,26.83
2022-08-26T06:52:38.347Z,27.12
2022-08-26T06:53:38.372Z,27.42
2022-08-26T06:54:38.793Z,27.48
2022-08-26T06:55:38.353Z,27.39
2022-08-26T06:56:38.352Z,27.39
2022-08-26T06:57:39.745Z,27.40
2022-08-26T06:58:38.313Z,27.77
2022-08-26T06:59:38.275Z,27.98
2022-08-26T07:00:38.305Z,28.12
2022-08-26T07:01:38.434Z,28.29
2022-08-26T07:02:38.338Z,28.37
2022-08-26T07:03:39.824Z,28.08
2022-08-26T07:04:38.221Z,28.17
2022-08-26T07:05:38.245Z,28.20
2022-08-26T07:06:39.067Z,28.17
2022-08-26T07:07:38.192Z,28.10
2022-08-26T07:08:38.210Z,28.07
2022-08-26T07:09:38.187Z,27.86
2022-08-26T07:10:38.128Z,27.89
2022-08-26T07:11:38.185Z,28.12
2022-08-26T07:12:38.179Z,28.25
2022-08-26T07:13:38.121Z,28.26
2022-08-26T07:14:38.367Z,28.35
2022-08-26T07:15:38.164Z,28.63
2022-08-26T07:16:38.164Z,28.74
2022-08-26T07:17:38.106Z,28.85
2022-08-26T07:18:38.120Z,29.13
2022-08-26T07:19:38.072Z,29.49
2022-08-26T07:20:38.063Z,29.60
2022-08-26T07:21:38.101Z,29.47
2022-08-26T07:22:38.051Z,29.45
2022-08-26T07:23:38.044Z,29.13
2022-08-26T07:24:37.997Z,29.07
2022-08-26T07:25:38.026Z,28.86
2022-08-26T07:26:38.033Z,28.63
2022-08-26T07:27:37.965Z,28.78
2022-08-26T07:28:37.971Z,28.94
2022-08-26T07:29:37.964Z,29.23
2022-08-26T07:30:38.012Z,29.04
2022-08-26T07:31:39.463Z,28.97
2022-08-26T07:32:37.909Z,28.97
2022-08-26T07:33:37.916Z,29.12
2022-08-26T07:34:37.921Z,29.13
2022-08-26T07:35:37.880Z,29.44
2022-08-26T07:36:37.915Z,29.29
2022-08-26T07:37:39.163Z,29.10
2022-08-26T07:38:37.853Z,28.85
2022-08-26T07:39:37.823Z,28.96
2022-08-26T07:40:37.812Z,28.94
2022-08-26T07:41:37.793Z,28.85
2022-08-26T07:42:37.860Z,29.02
2022-08-26T07:43:37.800Z,29.22
2022-08-26T07:44:37.796Z,29.54
2022-08-26T07:45:37.812Z,29.78
2022-08-26T07:46:37.769Z,30.15
2022-08-26T07:47:37.811Z,30.35
2022-08-26T07:48:37.741Z,30.44
2022-08-26T07:49:37.756Z,30.48
2022-08-26T07:50:50.105Z,29.95
2022-08-26T07:51:38.716Z,29.53
2022-08-26T07:52:37.730Z,29.57
2022-08-26T07:53:37.697Z,29.72
2022-08-26T07:54:37.697Z,29.57
2022-08-26T07:55:37.661Z,29.82
2022-08-26T07:56:37.660Z,30.06
2022-08-26T07:57:37.664Z,30.13
2022-08-26T07:58:37.615Z,30.19
2022-08-26T07:59:37.648Z,30.19
2022-08-26T08:00:37.604Z,29.88
2022-08-26T08:01:37.679Z,29.79
2022-08-26T08:02:37.627Z,29.35
2022-08-26T08:03:37.589Z,29.32
2022-08-26T08:04:37.597Z,29.13
2022-08-26T08:05:37.594Z,29.47
2022-08-26T08:06:37.573Z,30.09
2022-08-26T08:07:44.145Z,30.48
2022-08-26T08:08:38.532Z,30.90
2022-08-26T08:09:37.496Z,31.31
2022-08-26T08:10:37.475Z,31.46
2022-08-26T08:11:37.481Z,31.34
2022-08-26T08:12:37.504Z,30.96
2022-08-26T08:13:37.461Z,30.73
2022-08-26T08:14:37.482Z,30.78
2022-08-26T08:15:37.442Z,30.81
2022-08-26T08:16:42.380Z,30.48
2022-08-26T08:17:38.501Z,30.77
2022-08-26T08:18:37.412Z,31.10
2022-08-26T08:19:39.187Z,31.18
2022-08-26T08:20:37.378Z,30.85
2022-08-26T08:21:37.427Z,30.91
2022-08-26T08:22:37.435Z,30.72
2022-08-26T08:23:37.369Z,30.69
2022-08-26T08:24:37.402Z,31.14
2022-08-26T08:25:37.344Z,31.44
2022-08-26T08:26:37.314Z,31.80
2022-08-26T08:27:37.364Z,31.74
2022-08-26T08:28:37.337Z,31.52
2022-08-26T08:29:37.305Z,31.47
2022-08-26T08:30:37.320Z,31.73
2022-08-26T08:31:56.997Z,32.14
2022-08-26T08:32:38.278Z,32.30
2022-08-26T08:33:37.246Z,32.46
2022-08-26T08:34:37.320Z,32.31
2022-08-26T08:35:37.229Z,31.96
2022-08-26T08:36:37.216Z,31.18
2022-08-26T08:37:37.265Z,31.10
2022-08-26T08:38:37.210Z,30.97
2022-08-26T08:39:37.218Z,30.97
2022-08-26T08:40:37.224Z,30.90
2022-08-26T08:41:37.149Z,31.15
2022-08-26T08:42:37.169Z,31.36
2022-08-26T08:43:37.824Z,31.20
2022-08-26T08:44:37.118Z,31.36
2022-08-26T08:45:37.363Z,31.54
2022-08-26T08:46:37.107Z,31.76
2022-08-26T08:47:37.201Z,32.08
2022-08-26T08:48:37.075Z,31.74
2022-08-26T08:49:37.092Z,31.76
2022-08-26T08:50:37.067Z,31.96
2022-08-26T08:51:37.074Z,32.23
2022-08-26T08:52:37.101Z,32.43
2022-08-26T08:53:37.061Z,32.52
2022-08-26T08:54:37.065Z,32.45
2022-08-26T08:55:37.001Z,32.49
2022-08-26T08:56:37.016Z,32.48
2022-08-26T08:57:37.032Z,32.78
2022-08-26T08:58:36.975Z,32.77
2022-08-26T08:59:38.278Z,33.01
2022-08-26T09:00:39.867Z,33.00
2022-08-26T09:01:37.036Z,32.34
2022-08-26T09:02:37.077Z,32.40
2022-08-26T09:03:36.951Z,32.04
2022-08-26T09:04:36.906Z,32.22
2022-08-26T09:05:38.548Z,32.31
2022-08-26T09:06:36.918Z,32.56
2022-08-26T09:07:37.002Z,32.77
2022-08-26T09:08:36.930Z,33.07
2022-08-26T09:09:36.890Z,32.67
2022-08-26T09:10:36.865Z,32.22
2022-08-26T09:11:36.841Z,31.85
2022-08-26T09:12:36.849Z,32.21
2022-08-26T09:13:36.809Z,32.16
2022-08-26T09:14:36.825Z,32.27
2022-08-26T09:15:36.818Z,31.73
2022-08-26T09:16:36.819Z,31.66
2022-08-26T09:17:36.845Z,31.77
2022-08-26T09:18:36.795Z,32.04
2022-08-26T09:19:36.758Z,32.00
2022-08-26T09:20:36.742Z,32.23
2022-08-26T09:21:36.736Z,32.48
2022-08-26T09:22:36.733Z,32.83
2022-08-26T09:23:36.742Z,33.00
2022-08-26T09:24:41.837Z,33.19
2022-08-26T09:25:37.704Z,33.36
2022-08-26T09:26:36.686Z,33.31
2022-08-26T09:27:37.638Z,33.34
2022-08-26T09:28:36.660Z,32.78
2022-08-26T09:29:36.684Z,33.11
2022-08-26T09:30:36.659Z,33.43
2022-08-26T09:31:36.650Z,33.09
2022-08-26T09:32:36.611Z,32.90
2022-08-26T09:33:36.655Z,33.20
2022-08-26T09:34:36.604Z,32.96
2022-08-26T09:35:36.600Z,32.93
2022-08-26T09:36:39.465Z,32.86
2022-08-26T09:37:36.637Z,33.27
2022-08-26T09:38:36.612Z,33.62
2022-08-26T09:39:37.808Z,33.61
2022-08-26T09:40:36.593Z,33.57
2022-08-26T09:41:36.524Z,33.64
2022-08-26T09:42:36.506Z,33.53
2022-08-26T09:43:36.558Z,33.31
2022-08-26T09:44:36.506Z,33.27
2022-08-26T09:45:36.507Z,33.36
2022-08-26T09:46:36.658Z,33.19
2022-08-26T09:47:36.481Z,33.50
2022-08-26T09:48:36.637Z,33.58
2022-08-26T09:49:36.598Z,33.50
2022-08-26T09:50:36.452Z,33.95
2022-08-26T09:51:36.429Z,34.27
2022-08-26T09:52:36.424Z,34.06
2022-08-26T09:53:36.401Z,34.01
2022-08-26T09:54:36.423Z,33.71
2022-08-26T09:55:36.445Z,33.57
2022-08-26T09:56:36.389Z,33.99
2022-08-26T09:57:36.361Z,33.67
2022-08-26T09:58:37.821Z,33.71
2022-08-26T09:59:36.400Z,33.71
2022-08-26T10:00:38.430Z,33.86
2022-08-26T10:01:36.403Z,34.25
2022-08-26T10:02:36.339Z,34.36
2022-08-26T10:03:36.306Z,34.93
2022-08-26T10:04:36.379Z,35.02
2022-08-26T10:05:36.305Z,35.36
2022-08-26T10:06:36.292Z,35.37
2022-08-26T10:07:36.264Z,35.12
2022-08-26T10:08:36.273Z,34.70
2022-08-26T10:09:36.292Z,34.55
2022-08-26T10:10:36.238Z,34.35
2022-08-26T10:11:36.232Z,34.48
2022-08-26T10:12:36.209Z,34.57
2022-08-26T10:13:36.187Z,34.74
2022-08-26T10:14:36.265Z,34.62
2022-08-26T10:15:36.182Z,34.95
2022-08-26T10:16:36.238Z,35.11
2022-08-26T10:17:36.233Z,35.56
2022-08-26T10:18:36.149Z,35.53
2022-08-26T10:19:41.661Z,35.60
2022-08-26T10:20:37.148Z,35.95
2022-08-26T10:21:36.125Z,35.76
2022-08-26T10:22:36.124Z,35.00
2022-08-26T10:23:36.123Z,35.05
2022-08-26T10:24:36.129Z,35.53
2022-08-26T10:25:36.068Z,36.07
2022-08-26T10:26:36.093Z,36.51
2022-08-26T10:27:36.058Z,36.72
2022-08-26T10:28:36.067Z,36.18
2022-08-26T10:29:36.116Z,36.00
2022-08-26T10:30:36.040Z,36.09
2022-08-26T10:31:38.360Z,36.05
2022-08-26T10:32:36.026Z,35.95
2022-08-26T10:33:36.024Z,35.64
2022-08-26T10:34:35.992Z,35.48
2022-08-26T10:35:36.041Z,35.17
2022-08-26T10:36:47.027Z,35.70
2022-08-26T10:37:36.965Z,34.99
2022-08-26T10:38:35.971Z,35.49
2022-08-26T10:39:35.936Z,35.56
2022-08-26T10:40:36.012Z,35.55
2022-08-26T10:41:35.962Z,35.93
2022-08-26T10:42:37.529Z,35.97
2022-08-26T10:43:35.890Z,35.97
2022-08-26T10:44:36.920Z,35.88
2022-08-26T10:45:35.968Z,35.98
2022-08-26T10:46:35.893Z,35.33
2022-08-26T10:47:35.908Z,35.61
2022-08-26T10:48:36.062Z,35.64
2022-08-26T10:49:35.858Z,35.37
2022-08-26T10:50:35.898Z,35.39
2022-08-26T10:51:35.949Z,35.52
2022-08-26T10:52:35.825Z,34.90
2022-08-26T10:53:35.841Z,34.93
2022-08-26T10:54:35.792Z,35.31
2022-08-26T10:55:35.884Z,35.41
2022-08-26T10:56:35.789Z,35.46
2022-08-26T10:57:35.786Z,35.49
2022-08-26T10:58:35.805Z,35.90
2022-08-26T10:59:36.811Z,35.73
2022-08-26T11:00:35.796Z,35.44
2022-08-26T11:01:35.765Z,35.88
2022-08-26T11:02:36.777Z,36.39
2022-08-26T11:03:35.752Z,36.64
2022-08-26T11:04:35.755Z,36.28
2022-08-26T11:05:35.778Z,35.93
2022-08-26T11:06:37.104Z,35.66
2022-08-26T11:07:35.698Z,35.51
2022-08-26T11:08:35.717Z,35.44
2022-08-26T11:09:35.656Z,35.73
2022-08-26T11:10:35.694Z,36.08
2022-08-26T11:11:35.668Z,35.79
2022-08-26T11:12:35.635Z,35.61
2022-08-26T11:13:39.896Z,35.63
2022-08-26T11:14:53.659Z,35.45
2022-08-26T11:15:36.624Z,35.44
2022-08-26T11:16:35.678Z,35.76
2022-08-26T11:17:36.564Z,35.92
2022-08-26T11:18:35.580Z,36.46
2022-08-26T11:19:56.814Z,36.36
2022-08-26T11:20:36.584Z,36.08
2022-08-26T11:21:35.585Z,36.45
2022-08-26T11:22:36.410Z,36.28
2022-08-26T11:23:35.535Z,36.24
2022-08-26T11:24:35.536Z,36.45
2022-08-26T11:25:35.551Z,37.02
2022-08-26T11:26:55.466Z,36.54
2022-08-26T11:27:36.507Z,36.07
2022-08-26T11:28:35.486Z,35.68
2022-08-26T11:29:35.482Z,35.83
2022-08-26T11:30:35.513Z,35.83
2022-08-26T11:31:35.506Z,35.86
2022-08-26T11:32:35.768Z,36.12
2022-08-26T11:33:35.435Z,36.33
2022-08-26T11:34:35.413Z,35.89
2022-08-26T11:35:37.291Z,35.73
2022-08-26T11:36:35.401Z,36.01
2022-08-26T11:37:35.395Z,36.09
2022-08-26T11:38:35.419Z,36.39
2022-08-26T11:39:36.867Z,36.84
2022-08-26T11:40:35.488Z,36.65
2022-08-26T11:41:35.376Z,36.46
2022-08-26T11:42:35.351Z,36.45
2022-08-26T11:43:35.326Z,36.70
2022-08-26T11:44:35.330Z,37.10
2022-08-26T11:45:35.381Z,37.26
2022-08-26T11:46:35.314Z,37.59
2022-08-26T11:47:35.307Z,37.39
2022-08-26T11:48:35.298Z,37.55
2022-08-26T11:49:35.301Z,37.08
2022-08-26T11:50:35.330Z,37.08
2022-08-26T11:51:39.697Z,37.01
2022-08-26T11:52:36.260Z,36.72
2022-08-26T11:53:35.248Z,35.98
2022-08-26T11:54:35.872Z,35.04
2022-08-26T11:55:35.276Z,34.01
2022-08-26T11:56:35.194Z,33.65
2022-08-26T11:57:35.202Z,33.07
2022-08-26T11:58:35.191Z,32.82
2022-08-26T12:00:35.213Z,33.53
2022-08-26T12:01:35.181Z,34.77
2022-08-26T12:02:35.147Z,34.93
2022-08-26T12:03:35.214Z,34.33
2022-08-26T12:04:35.188Z,35.10
2022-08-26T12:05:35.165Z,34.78
2022-08-26T12:06:37.431Z,34.14
2022-08-26T12:07:36.113Z,33.46
2022-08-26T12:08:35.110Z,33.00
2022-08-26T12:09:35.083Z,32.04
2022-08-26T12:10:35.152Z,31.99
2022-08-26T12:11:35.078Z,32.96
2022-08-26T12:12:36.123Z,33.96
2022-08-26T12:13:35.048Z,34.58
2022-08-26T12:14:35.027Z,35.48
2022-08-26T12:15:35.035Z,36.25
2022-08-26T12:16:35.069Z,36.54
2022-08-26T12:17:35.027Z,37.23
2022-08-26T12:18:34.987Z,37.59
2022-08-26T12:19:34.964Z,37.77
2022-08-26T12:20:35.025Z,37.53
2022-08-26T12:21:35.109Z,36.77
2022-08-26T12:22:34.999Z,35.30
2022-08-26T12:23:34.938Z,34.14
2022-08-26T12:24:34.929Z,33.23
2022-08-26T12:25:36.115Z,32.85
2022-08-26T12:26:34.907Z,32.78
2022-08-26T12:27:34.897Z,32.51
2022-08-26T12:28:34.889Z,32.26
2022-08-26T12:29:34.872Z,32.15
2022-08-26T12:30:34.917Z,32.22
2022-08-26T12:31:34.946Z,32.14
2022-08-26T12:32:34.847Z,32.18
2022-08-26T12:33:34.847Z,32.67
2022-08-26T12:34:34.845Z,32.74
2022-08-26T12:35:34.850Z,32.52
2022-08-26T12:36:34.826Z,32.23
2022-08-26T12:37:34.777Z,33.01
2022-08-26T12:38:34.805Z,33.24
2022-08-26T12:39:34.768Z,33.28
2022-08-26T12:40:34.866Z,33.68
2022-08-26T12:41:34.762Z,33.05
2022-08-26T12:42:34.772Z,33.24
2022-08-26T12:43:34.739Z,34.05
2022-08-26T12:44:34.751Z,34.35
2022-08-26T12:45:34.760Z,34.77
2022-08-26T12:46:34.719Z,34.96
2022-08-26T12:47:43.601Z,35.14
2022-08-26T12:48:35.691Z,35.41
2022-08-26T12:49:34.676Z,35.36
2022-08-26T12:50:34.729Z,34.61
2022-08-26T12:51:34.641Z,33.83
2022-08-26T12:52:34.643Z,33.36
2022-08-26T12:53:34.642Z,33.79